sensor_id;sensor_type;location;lat;lon;timestamp;P1;durP1;ratioP1;P2;durP2;ratioP2
12970;SDS011;6550;48.650;8.774;2023-03-01T00:01:39;10.73;;;7.90;;
12970;SDS011;6550;48.650;8.774;2023-03-01T00:04:06;10.20;;;7.63;;
12970;SDS011;6550;48.650;8.774;2023-03-01T00:06:33;11.80;;;8.50;;
12970;SDS011;6550;48.650;8.774;2023-03-01T00:09:00;10.23;;;7.87;;
12970;SDS011;6550;48.650;8.774;2023-03-01T00:11:29;11.50;;;8.17;;
12970;SDS011;6550;48.650;8.774;2023-03-01T00:13:58;12.53;;;7.70;;
12970;SDS011;6550;48.650;8.774;2023-03-01T00:16:28;9.67;;;7.67;;
12970;SDS011;6550;48.650;8.774;2023-03-01T00:18:57;11.73;;;8.40;;
12970;SDS011;6550;48.650;8.774;2023-03-01T00:21:27;13.03;;;9.00;;
12970;SDS011;6550;48.650;8.774;2023-03-01T00:23:54;13.70;;;8.57;;
12970;SDS011;6550;48.650;8.774;2023-03-01T00:26:22;12.13;;;9.13;;
12970;SDS011;6550;48.650;8.774;2023-03-01T00:28:52;10.40;;;7.93;;
12970;SDS011;6550;48.650;8.774;2023-03-01T00:31:21;12.80;;;8.38;;
12970;SDS011;6550;48.650;8.774;2023-03-01T00:33:53;11.40;;;8.67;;
12970;SDS011;6550;48.650;8.774;2023-03-01T00:36:26;12.47;;;8.77;;
12970;SDS011;6550;48.650;8.774;2023-03-01T00:38:55;11.20;;;7.80;;
12970;SDS011;6550;48.650;8.774;2023-03-01T00:41:24;12.03;;;8.23;;
12970;SDS011;6550;48.650;8.774;2023-03-01T00:43:53;11.33;;;8.60;;
12970;SDS011;6550;48.650;8.774;2023-03-01T00:46:21;12.73;;;8.43;;
12970;SDS011;6550;48.650;8.774;2023-03-01T00:48:50;11.00;;;8.10;;
12970;SDS011;6550;48.650;8.774;2023-03-01T00:51:29;10.97;;;8.43;;
12970;SDS011;6550;48.650;8.774;2023-03-01T00:53:57;11.67;;;8.43;;
12970;SDS011;6550;48.650;8.774;2023-03-01T00:56:28;11.67;;;8.50;;
12970;SDS011;6550;48.650;8.774;2023-03-01T00:58:57;12.57;;;8.77;;
12970;SDS011;6550;48.650;8.774;2023-03-01T01:01:28;12.30;;;8.60;;
12970;SDS011;6550;48.650;8.774;2023-03-01T01:03:57;12.73;;;8.93;;
12970;SDS011;6550;48.650;8.774;2023-03-01T01:08:57;10.23;;;7.53;;
12970;SDS011;6550;48.650;8.774;2023-03-01T01:11:25;11.03;;;7.70;;
12970;SDS011;6550;48.650;8.774;2023-03-01T01:13:53;11.20;;;8.50;;
12970;SDS011;6550;48.650;8.774;2023-03-01T01:16:20;11.73;;;8.57;;
12970;SDS011;6550;48.650;8.774;2023-03-01T01:18:49;12.88;;;9.68;;
12970;SDS011;6550;48.650;8.774;2023-03-01T01:21:19;10.83;;;8.80;;
12970;SDS011;6550;48.650;8.774;2023-03-01T01:23:49;13.23;;;8.73;;
12970;SDS011;6550;48.650;8.774;2023-03-01T01:26:22;12.20;;;8.77;;
12970;SDS011;6550;48.650;8.774;2023-03-01T01:28:51;11.67;;;8.57;;
12970;SDS011;6550;48.650;8.774;2023-03-01T01:31:19;10.70;;;7.83;;
12970;SDS011;6550;48.650;8.774;2023-03-01T01:33:46;14.03;;;9.63;;
12970;SDS011;6550;48.650;8.774;2023-03-01T01:36:13;11.10;;;9.50;;
12970;SDS011;6550;48.650;8.774;2023-03-01T01:38:39;10.70;;;8.60;;
12970;SDS011;6550;48.650;8.774;2023-03-01T01:41:11;10.40;;;7.77;;
12970;SDS011;6550;48.650;8.774;2023-03-01T01:43:42;10.40;;;8.47;;
12970;SDS011;6550;48.650;8.774;2023-03-01T01:46:27;11.60;;;8.17;;
12970;SDS011;6550;48.650;8.774;2023-03-01T01:49:02;10.90;;;8.03;;
12970;SDS011;6550;48.650;8.774;2023-03-01T01:51:34;11.43;;;8.23;;
12970;SDS011;6550;48.650;8.774;2023-03-01T01:54:10;10.23;;;7.70;;
12970;SDS011;6550;48.650;8.774;2023-03-01T01:56:45;12.90;;;9.17;;
12970;SDS011;6550;48.650;8.774;2023-03-01T01:59:20;11.80;;;8.63;;
12970;SDS011;6550;48.650;8.774;2023-03-01T02:01:51;11.90;;;8.43;;
12970;SDS011;6550;48.650;8.774;2023-03-01T02:04:18;11.83;;;8.77;;
12970;SDS011;6550;48.650;8.774;2023-03-01T02:06:51;10.25;;;7.97;;
12970;SDS011;6550;48.650;8.774;2023-03-01T02:09:26;10.57;;;8.10;;
12970;SDS011;6550;48.650;8.774;2023-03-01T02:11:54;11.57;;;8.23;;
12970;SDS011;6550;48.650;8.774;2023-03-01T02:14:22;10.57;;;7.97;;
12970;SDS011;6550;48.650;8.774;2023-03-01T02:16:55;12.67;;;8.67;;
12970;SDS011;6550;48.650;8.774;2023-03-01T02:19:34;10.87;;;7.80;;
12970;SDS011;6550;48.650;8.774;2023-03-01T02:22:20;10.70;;;7.97;;
12970;SDS011;6550;48.650;8.774;2023-03-01T02:30:30;12.83;;;8.57;;
12970;SDS011;6550;48.650;8.774;2023-03-01T02:32:57;10.67;;;7.77;;
12970;SDS011;6550;48.650;8.774;2023-03-01T02:35:29;12.57;;;8.80;;
12970;SDS011;6550;48.650;8.774;2023-03-01T02:37:58;13.90;;;9.13;;
12970;SDS011;6550;48.650;8.774;2023-03-01T02:40:30;10.43;;;8.40;;
12970;SDS011;6550;48.650;8.774;2023-03-01T02:42:58;11.73;;;8.13;;
12970;SDS011;6550;48.650;8.774;2023-03-01T02:45:25;11.30;;;7.87;;
12970;SDS011;6550;48.650;8.774;2023-03-01T02:47:53;12.43;;;8.23;;
12970;SDS011;6550;48.650;8.774;2023-03-01T02:53:06;11.67;;;7.87;;
12970;SDS011;6550;48.650;8.774;2023-03-01T02:55:42;12.25;;;9.43;;
12970;SDS011;6550;48.650;8.774;2023-03-01T02:58:09;11.17;;;8.27;;
12970;SDS011;6550;48.650;8.774;2023-03-01T03:00:39;11.50;;;8.60;;
12970;SDS011;6550;48.650;8.774;2023-03-01T03:03:16;10.47;;;8.03;;
12970;SDS011;6550;48.650;8.774;2023-03-01T03:05:45;10.83;;;7.87;;
12970;SDS011;6550;48.650;8.774;2023-03-01T03:08:12;11.37;;;8.07;;
12970;SDS011;6550;48.650;8.774;2023-03-01T03:10:40;11.10;;;7.63;;
12970;SDS011;6550;48.650;8.774;2023-03-01T03:13:10;10.93;;;7.73;;
12970;SDS011;6550;48.650;8.774;2023-03-01T03:15:40;9.90;;;7.83;;
12970;SDS011;6550;48.650;8.774;2023-03-01T03:18:09;11.17;;;8.17;;
12970;SDS011;6550;48.650;8.774;2023-03-01T03:20:40;12.40;;;8.40;;
12970;SDS011;6550;48.650;8.774;2023-03-01T03:23:08;11.47;;;8.30;;
12970;SDS011;6550;48.650;8.774;2023-03-01T03:25:35;9.87;;;7.83;;
12970;SDS011;6550;48.650;8.774;2023-03-01T03:28:04;12.23;;;8.50;;
12970;SDS011;6550;48.650;8.774;2023-03-01T03:30:37;12.77;;;8.90;;
12970;SDS011;6550;48.650;8.774;2023-03-01T03:33:05;11.97;;;8.73;;
12970;SDS011;6550;48.650;8.774;2023-03-01T03:35:33;13.87;;;9.20;;
12970;SDS011;6550;48.650;8.774;2023-03-01T03:38:06;10.13;;;7.80;;
12970;SDS011;6550;48.650;8.774;2023-03-01T03:40:42;12.60;;;8.80;;
12970;SDS011;6550;48.650;8.774;2023-03-01T03:43:17;10.57;;;8.53;;
12970;SDS011;6550;48.650;8.774;2023-03-01T03:45:48;17.57;;;9.23;;
12970;SDS011;6550;48.650;8.774;2023-03-01T03:48:17;14.73;;;9.23;;
12970;SDS011;6550;48.650;8.774;2023-03-01T03:50:48;13.60;;;9.53;;
12970;SDS011;6550;48.650;8.774;2023-03-01T03:53:17;10.57;;;8.83;;
12970;SDS011;6550;48.650;8.774;2023-03-01T03:55:44;11.10;;;8.83;;
12970;SDS011;6550;48.650;8.774;2023-03-01T03:58:12;12.73;;;9.10;;
12970;SDS011;6550;48.650;8.774;2023-03-01T04:00:40;13.13;;;10.88;;
12970;SDS011;6550;48.650;8.774;2023-03-01T04:03:10;13.70;;;9.20;;
12970;SDS011;6550;48.650;8.774;2023-03-01T04:05:39;14.20;;;9.37;;
12970;SDS011;6550;48.650;8.774;2023-03-01T04:08:11;12.10;;;8.60;;
12970;SDS011;6550;48.650;8.774;2023-03-01T04:10:43;14.33;;;9.40;;
12970;SDS011;6550;48.650;8.774;2023-03-01T04:13:12;15.77;;;9.77;;
12970;SDS011;6550;48.650;8.774;2023-03-01T04:15:41;13.13;;;9.60;;
12970;SDS011;6550;48.650;8.774;2023-03-01T04:18:10;13.17;;;8.90;;
12970;SDS011;6550;48.650;8.774;2023-03-01T04:20:39;12.90;;;8.60;;
12970;SDS011;6550;48.650;8.774;2023-03-01T04:23:12;11.43;;;8.70;;
12970;SDS011;6550;48.650;8.774;2023-03-01T04:25:51;12.77;;;9.57;;
12970;SDS011;6550;48.650;8.774;2023-03-01T04:28:22;12.07;;;9.33;;
12970;SDS011;6550;48.650;8.774;2023-03-01T04:30:53;13.70;;;9.90;;
12970;SDS011;6550;48.650;8.774;2023-03-01T04:33:21;14.20;;;10.00;;
12970;SDS011;6550;48.650;8.774;2023-03-01T04:35:51;14.13;;;9.43;;
12970;SDS011;6550;48.650;8.774;2023-03-01T04:38:19;12.20;;;9.07;;
12970;SDS011;6550;48.650;8.774;2023-03-01T04:40:47;14.40;;;10.00;;
12970;SDS011;6550;48.650;8.774;2023-03-01T04:43:16;12.93;;;9.40;;
12970;SDS011;6550;48.650;8.774;2023-03-01T04:45:43;11.10;;;8.97;;
12970;SDS011;6550;48.650;8.774;2023-03-01T04:48:10;13.00;;;9.33;;
12970;SDS011;6550;48.650;8.774;2023-03-01T04:50:39;11.60;;;9.07;;
12970;SDS011;6550;48.650;8.774;2023-03-01T04:53:06;12.97;;;9.53;;
12970;SDS011;6550;48.650;8.774;2023-03-01T04:55:37;12.93;;;8.93;;
12970;SDS011;6550;48.650;8.774;2023-03-01T04:58:04;14.30;;;9.17;;
12970;SDS011;6550;48.650;8.774;2023-03-01T05:00:31;13.77;;;9.70;;
12970;SDS011;6550;48.650;8.774;2023-03-01T05:02:59;13.30;;;8.80;;
12970;SDS011;6550;48.650;8.774;2023-03-01T05:05:36;14.07;;;9.90;;
12970;SDS011;6550;48.650;8.774;2023-03-01T05:08:05;13.57;;;9.93;;
12970;SDS011;6550;48.650;8.774;2023-03-01T05:10:34;13.30;;;9.83;;
12970;SDS011;6550;48.650;8.774;2023-03-01T05:13:02;13.20;;;9.10;;
12970;SDS011;6550;48.650;8.774;2023-03-01T05:15:30;15.57;;;9.90;;
12970;SDS011;6550;48.650;8.774;2023-03-01T05:17:58;13.88;;;11.88;;
12970;SDS011;6550;48.650;8.774;2023-03-01T05:20:26;14.70;;;10.80;;
12970;SDS011;6550;48.650;8.774;2023-03-01T05:22:55;12.33;;;9.63;;
12970;SDS011;6550;48.650;8.774;2023-03-01T05:25:26;13.43;;;10.10;;
12970;SDS011;6550;48.650;8.774;2023-03-01T05:27:53;13.13;;;9.67;;
12970;SDS011;6550;48.650;8.774;2023-03-01T05:30:20;12.90;;;9.87;;
12970;SDS011;6550;48.650;8.774;2023-03-01T05:32:48;13.67;;;10.43;;
12970;SDS011;6550;48.650;8.774;2023-03-01T05:35:21;12.40;;;9.83;;
12970;SDS011;6550;48.650;8.774;2023-03-01T05:37:49;14.73;;;10.33;;
12970;SDS011;6550;48.650;8.774;2023-03-01T05:40:19;12.77;;;9.63;;
12970;SDS011;6550;48.650;8.774;2023-03-01T05:42:52;13.83;;;10.07;;
12970;SDS011;6550;48.650;8.774;2023-03-01T05:45:23;14.97;;;10.10;;
12970;SDS011;6550;48.650;8.774;2023-03-01T05:47:51;13.73;;;9.93;;
12970;SDS011;6550;48.650;8.774;2023-03-01T05:50:22;13.93;;;9.90;;
12970;SDS011;6550;48.650;8.774;2023-03-01T05:52:57;12.67;;;9.97;;
12970;SDS011;6550;48.650;8.774;2023-03-01T05:55:27;12.70;;;9.43;;
12970;SDS011;6550;48.650;8.774;2023-03-01T05:57:57;12.60;;;9.97;;
12970;SDS011;6550;48.650;8.774;2023-03-01T06:00:26;13.50;;;10.00;;
12970;SDS011;6550;48.650;8.774;2023-03-01T06:02:59;15.00;;;10.60;;
12970;SDS011;6550;48.650;8.774;2023-03-01T06:05:28;13.03;;;9.77;;
12970;SDS011;6550;48.650;8.774;2023-03-01T06:07:58;13.10;;;9.90;;
12970;SDS011;6550;48.650;8.774;2023-03-01T06:10:28;13.83;;;9.87;;
12970;SDS011;6550;48.650;8.774;2023-03-01T06:12:58;12.83;;;9.87;;
12970;SDS011;6550;48.650;8.774;2023-03-01T06:15:25;14.20;;;10.50;;
12970;SDS011;6550;48.650;8.774;2023-03-01T06:17:53;14.15;;;10.95;;
12970;SDS011;6550;48.650;8.774;2023-03-01T06:20:25;14.17;;;10.30;;
12970;SDS011;6550;48.650;8.774;2023-03-01T06:22:53;13.43;;;9.90;;
12970;SDS011;6550;48.650;8.774;2023-03-01T06:25:21;12.27;;;9.70;;
12970;SDS011;6550;48.650;8.774;2023-03-01T06:27:51;15.47;;;11.07;;
12970;SDS011;6550;48.650;8.774;2023-03-01T06:30:23;13.57;;;9.80;;
12970;SDS011;6550;48.650;8.774;2023-03-01T06:32:53;14.13;;;10.33;;
12970;SDS011;6550;48.650;8.774;2023-03-01T06:35:26;16.63;;;10.77;;
12970;SDS011;6550;48.650;8.774;2023-03-01T06:37:56;15.57;;;11.10;;
12970;SDS011;6550;48.650;8.774;2023-03-01T06:40:27;14.50;;;10.17;;
12970;SDS011;6550;48.650;8.774;2023-03-01T06:42:54;14.57;;;10.87;;
12970;SDS011;6550;48.650;8.774;2023-03-01T06:45:23;14.33;;;10.30;;
12970;SDS011;6550;48.650;8.774;2023-03-01T06:47:50;14.57;;;11.60;;
12970;SDS011;6550;48.650;8.774;2023-03-01T06:50:17;14.43;;;11.07;;
12970;SDS011;6550;48.650;8.774;2023-03-01T06:52:46;13.03;;;9.40;;
12970;SDS011;6550;48.650;8.774;2023-03-01T06:55:13;13.10;;;10.23;;
12970;SDS011;6550;48.650;8.774;2023-03-01T06:57:42;13.60;;;10.43;;
12970;SDS011;6550;48.650;8.774;2023-03-01T07:00:11;16.13;;;11.03;;
12970;SDS011;6550;48.650;8.774;2023-03-01T07:02:40;15.25;;;11.48;;
12970;SDS011;6550;48.650;8.774;2023-03-01T07:05:07;15.33;;;11.23;;
12970;SDS011;6550;48.650;8.774;2023-03-01T07:07:34;13.83;;;10.97;;
12970;SDS011;6550;48.650;8.774;2023-03-01T07:10:01;14.70;;;11.20;;
12970;SDS011;6550;48.650;8.774;2023-03-01T07:12:27;16.00;;;11.63;;
12970;SDS011;6550;48.650;8.774;2023-03-01T07:14:54;19.77;;;12.90;;
12970;SDS011;6550;48.650;8.774;2023-03-01T07:17:21;14.03;;;11.10;;
12970;SDS011;6550;48.650;8.774;2023-03-01T07:19:50;16.47;;;11.50;;
12970;SDS011;6550;48.650;8.774;2023-03-01T07:22:16;16.00;;;11.47;;
12970;SDS011;6550;48.650;8.774;2023-03-01T07:24:43;15.10;;;12.00;;
12970;SDS011;6550;48.650;8.774;2023-03-01T07:27:10;15.10;;;11.60;;
12970;SDS011;6550;48.650;8.774;2023-03-01T07:29:38;17.53;;;12.23;;
12970;SDS011;6550;48.650;8.774;2023-03-01T07:32:07;16.00;;;12.80;;
12970;SDS011;6550;48.650;8.774;2023-03-01T07:34:34;15.63;;;12.00;;
12970;SDS011;6550;48.650;8.774;2023-03-01T07:37:05;14.70;;;11.90;;
12970;SDS011;6550;48.650;8.774;2023-03-01T07:39:32;14.10;;;11.40;;
12970;SDS011;6550;48.650;8.774;2023-03-01T07:41:59;15.70;;;11.87;;
12970;SDS011;6550;48.650;8.774;2023-03-01T07:44:26;15.67;;;11.90;;
12970;SDS011;6550;48.650;8.774;2023-03-01T07:46:54;14.00;;;11.20;;
12970;SDS011;6550;48.650;8.774;2023-03-01T07:49:24;15.93;;;11.73;;
12970;SDS011;6550;48.650;8.774;2023-03-01T07:51:52;14.83;;;11.77;;
12970;SDS011;6550;48.650;8.774;2023-03-01T07:54:19;18.43;;;12.83;;
12970;SDS011;6550;48.650;8.774;2023-03-01T07:56:50;15.03;;;11.67;;
12970;SDS011;6550;48.650;8.774;2023-03-01T07:59:17;18.50;;;11.00;;
12970;SDS011;6550;48.650;8.774;2023-03-01T08:01:46;12.70;;;10.70;;
12970;SDS011;6550;48.650;8.774;2023-03-01T08:04:15;17.20;;;11.40;;
12970;SDS011;6550;48.650;8.774;2023-03-01T08:06:44;14.90;;;10.87;;
12970;SDS011;6550;48.650;8.774;2023-03-01T08:09:13;15.00;;;11.10;;
12970;SDS011;6550;48.650;8.774;2023-03-01T08:11:40;15.83;;;11.23;;
12970;SDS011;6550;48.650;8.774;2023-03-01T08:14:07;15.70;;;12.03;;
12970;SDS011;6550;48.650;8.774;2023-03-01T08:16:36;13.47;;;10.77;;
12970;SDS011;6550;48.650;8.774;2023-03-01T08:19:07;15.60;;;11.47;;
12970;SDS011;6550;48.650;8.774;2023-03-01T08:21:35;17.20;;;10.50;;
12970;SDS011;6550;48.650;8.774;2023-03-01T08:24:03;13.43;;;10.97;;
12970;SDS011;6550;48.650;8.774;2023-03-01T08:26:36;10.87;;;9.50;;
12970;SDS011;6550;48.650;8.774;2023-03-01T08:29:03;14.80;;;10.47;;
12970;SDS011;6550;48.650;8.774;2023-03-01T08:31:31;14.93;;;12.50;;
12970;SDS011;6550;48.650;8.774;2023-03-01T08:34:03;12.47;;;10.97;;
12970;SDS011;6550;48.650;8.774;2023-03-01T08:36:35;11.53;;;10.27;;
12970;SDS011;6550;48.650;8.774;2023-03-01T08:39:04;12.17;;;10.87;;
12970;SDS011;6550;48.650;8.774;2023-03-01T08:41:31;14.03;;;10.90;;
12970;SDS011;6550;48.650;8.774;2023-03-01T08:44:00;12.77;;;10.63;;
12970;SDS011;6550;48.650;8.774;2023-03-01T08:46:29;12.07;;;9.90;;
12970;SDS011;6550;48.650;8.774;2023-03-01T08:49:03;16.97;;;11.37;;
12970;SDS011;6550;48.650;8.774;2023-03-01T08:51:34;17.23;;;10.87;;
12970;SDS011;6550;48.650;8.774;2023-03-01T08:54:07;13.87;;;10.70;;
12970;SDS011;6550;48.650;8.774;2023-03-01T08:56:37;15.10;;;12.67;;
12970;SDS011;6550;48.650;8.774;2023-03-01T08:59:07;12.43;;;10.67;;
12970;SDS011;6550;48.650;8.774;2023-03-01T09:01:33;13.57;;;10.90;;
12970;SDS011;6550;48.650;8.774;2023-03-01T09:04:00;12.03;;;10.67;;
12970;SDS011;6550;48.650;8.774;2023-03-01T09:06:30;11.97;;;10.67;;
12970;SDS011;6550;48.650;8.774;2023-03-01T09:09:02;15.63;;;11.67;;
12970;SDS011;6550;48.650;8.774;2023-03-01T09:11:30;13.87;;;11.77;;
12970;SDS011;6550;48.650;8.774;2023-03-01T09:14:04;15.03;;;11.50;;
12970;SDS011;6550;48.650;8.774;2023-03-01T09:16:32;14.57;;;12.00;;
12970;SDS011;6550;48.650;8.774;2023-03-01T09:19:02;13.50;;;12.10;;
12970;SDS011;6550;48.650;8.774;2023-03-01T09:21:29;13.60;;;11.63;;
12970;SDS011;6550;48.650;8.774;2023-03-01T09:24:05;14.47;;;11.77;;
12970;SDS011;6550;48.650;8.774;2023-03-01T09:26:39;14.63;;;11.73;;
12970;SDS011;6550;48.650;8.774;2023-03-01T09:29:08;13.83;;;11.37;;
12970;SDS011;6550;48.650;8.774;2023-03-01T09:31:36;13.70;;;10.97;;
12970;SDS011;6550;48.650;8.774;2023-03-01T09:34:03;13.93;;;11.17;;
12970;SDS011;6550;48.650;8.774;2023-03-01T09:36:30;14.38;;;12.88;;
12970;SDS011;6550;48.650;8.774;2023-03-01T09:38:59;12.97;;;11.57;;
12970;SDS011;6550;48.650;8.774;2023-03-01T09:47:00;13.87;;;11.73;;
12970;SDS011;6550;48.650;8.774;2023-03-01T09:49:29;14.67;;;11.57;;
12970;SDS011;6550;48.650;8.774;2023-03-01T09:54:39;13.23;;;11.83;;
12970;SDS011;6550;48.650;8.774;2023-03-01T09:59:45;13.73;;;11.60;;
12970;SDS011;6550;48.650;8.774;2023-03-01T10:02:38;15.20;;;11.00;;
12970;SDS011;6550;48.650;8.774;2023-03-01T10:10:46;12.03;;;10.73;;
12970;SDS011;6550;48.650;8.774;2023-03-01T10:13:25;13.17;;;11.57;;
12970;SDS011;6550;48.650;8.774;2023-03-01T10:18:55;13.47;;;11.83;;
12970;SDS011;6550;48.650;8.774;2023-03-01T10:21:28;15.20;;;10.80;;
12970;SDS011;6550;48.650;8.774;2023-03-01T10:24:08;12.33;;;10.80;;
12970;SDS011;6550;48.650;8.774;2023-03-01T10:27:15;12.93;;;11.50;;
12970;SDS011;6550;48.650;8.774;2023-03-01T10:29:45;13.60;;;11.57;;
12970;SDS011;6550;48.650;8.774;2023-03-01T10:32:24;12.47;;;11.13;;
12970;SDS011;6550;48.650;8.774;2023-03-01T10:34:51;13.80;;;11.53;;
12970;SDS011;6550;48.650;8.774;2023-03-01T10:37:18;13.30;;;11.23;;
12970;SDS011;6550;48.650;8.774;2023-03-01T10:39:55;12.83;;;11.53;;
12970;SDS011;6550;48.650;8.774;2023-03-01T10:42:38;15.03;;;11.37;;
12970;SDS011;6550;48.650;8.774;2023-03-01T10:48:04;14.13;;;10.20;;
12970;SDS011;6550;48.650;8.774;2023-03-01T10:50:42;13.65;;;10.10;;
12970;SDS011;6550;48.650;8.774;2023-03-01T10:56:18;13.93;;;11.43;;
12970;SDS011;6550;48.650;8.774;2023-03-01T11:06:32;14.00;;;11.95;;
12970;SDS011;6550;48.650;8.774;2023-03-01T11:09:19;11.87;;;10.70;;
12970;SDS011;6550;48.650;8.774;2023-03-01T11:11:54;12.93;;;11.40;;
12970;SDS011;6550;48.650;8.774;2023-03-01T11:14:38;16.17;;;11.03;;
12970;SDS011;6550;48.650;8.774;2023-03-01T11:17:13;12.43;;;11.13;;
12970;SDS011;6550;48.650;8.774;2023-03-01T11:19:59;13.73;;;10.93;;
12970;SDS011;6550;48.650;8.774;2023-03-01T11:22:44;14.73;;;11.77;;
12970;SDS011;6550;48.650;8.774;2023-03-01T11:25:19;13.60;;;11.33;;
12970;SDS011;6550;48.650;8.774;2023-03-01T11:27:50;15.18;;;13.40;;
12970;SDS011;6550;48.650;8.774;2023-03-01T11:30:26;13.63;;;12.23;;
12970;SDS011;6550;48.650;8.774;2023-03-01T11:35:41;14.23;;;12.33;;
12970;SDS011;6550;48.650;8.774;2023-03-01T11:41:17;14.55;;;12.18;;
12970;SDS011;6550;48.650;8.774;2023-03-01T12:08:05;9.67;;;7.23;;
12970;SDS011;6550;48.650;8.774;2023-03-01T12:21:23;12.07;;;10.57;;
12970;SDS011;6550;48.650;8.774;2023-03-01T12:24:14;10.97;;;8.53;;
12970;SDS011;6550;48.650;8.774;2023-03-01T12:27:02;13.30;;;10.10;;
12970;SDS011;6550;48.650;8.774;2023-03-01T12:29:47;16.87;;;10.97;;
12970;SDS011;6550;48.650;8.774;2023-03-01T12:43:44;16.77;;;11.63;;
12970;SDS011;6550;48.650;8.774;2023-03-01T12:51:22;11.77;;;10.57;;
12970;SDS011;6550;48.650;8.774;2023-03-01T12:53:55;10.63;;;6.27;;
12970;SDS011;6550;48.650;8.774;2023-03-01T12:56:24;14.23;;;6.90;;
12970;SDS011;6550;48.650;8.774;2023-03-01T13:01:44;17.33;;;7.67;;
12970;SDS011;6550;48.650;8.774;2023-03-01T13:04:23;11.37;;;7.97;;
12970;SDS011;6550;48.650;8.774;2023-03-01T13:31:03;13.43;;;9.23;;
12970;SDS011;6550;48.650;8.774;2023-03-01T13:36:00;10.43;;;8.77;;
12970;SDS011;6550;48.650;8.774;2023-03-01T13:41:14;11.80;;;9.87;;
12970;SDS011;6550;48.650;8.774;2023-03-01T13:43:43;10.67;;;9.57;;
12970;SDS011;6550;48.650;8.774;2023-03-01T13:46:15;12.20;;;9.77;;
12970;SDS011;6550;48.650;8.774;2023-03-01T13:48:49;12.73;;;10.07;;
12970;SDS011;6550;48.650;8.774;2023-03-01T13:51:25;16.03;;;10.90;;
12970;SDS011;6550;48.650;8.774;2023-03-01T13:53:56;11.67;;;9.87;;
12970;SDS011;6550;48.650;8.774;2023-03-01T13:56:25;10.57;;;9.47;;
12970;SDS011;6550;48.650;8.774;2023-03-01T13:59:02;12.00;;;9.47;;
12970;SDS011;6550;48.650;8.774;2023-03-01T14:01:34;13.10;;;9.33;;
12970;SDS011;6550;48.650;8.774;2023-03-01T14:04:17;12.30;;;10.20;;
12970;SDS011;6550;48.650;8.774;2023-03-01T14:06:49;12.37;;;10.50;;
12970;SDS011;6550;48.650;8.774;2023-03-01T14:09:17;13.33;;;10.83;;
12970;SDS011;6550;48.650;8.774;2023-03-01T14:12:11;11.67;;;10.43;;
12970;SDS011;6550;48.650;8.774;2023-03-01T14:14:48;12.27;;;10.83;;
12970;SDS011;6550;48.650;8.774;2023-03-01T14:20:37;12.50;;;10.50;;
12970;SDS011;6550;48.650;8.774;2023-03-01T14:23:18;13.48;;;11.20;;
12970;SDS011;6550;48.650;8.774;2023-03-01T14:25:53;13.90;;;11.07;;
12970;SDS011;6550;48.650;8.774;2023-03-01T14:28:23;11.00;;;9.67;;
12970;SDS011;6550;48.650;8.774;2023-03-01T14:30:56;11.47;;;10.00;;
12970;SDS011;6550;48.650;8.774;2023-03-01T14:36:03;14.07;;;10.60;;
12970;SDS011;6550;48.650;8.774;2023-03-01T14:38:44;14.73;;;11.13;;
12970;SDS011;6550;48.650;8.774;2023-03-01T14:41:14;12.85;;;11.48;;
12970;SDS011;6550;48.650;8.774;2023-03-01T14:43:45;16.10;;;10.33;;
12970;SDS011;6550;48.650;8.774;2023-03-01T14:46:19;11.43;;;9.37;;
12970;SDS011;6550;48.650;8.774;2023-03-01T14:49:01;14.57;;;10.93;;
12970;SDS011;6550;48.650;8.774;2023-03-01T14:51:39;12.33;;;10.30;;
12970;SDS011;6550;48.650;8.774;2023-03-01T14:56:52;11.83;;;10.53;;
12970;SDS011;6550;48.650;8.774;2023-03-01T14:59:21;13.60;;;10.40;;
12970;SDS011;6550;48.650;8.774;2023-03-01T15:01:51;13.17;;;10.97;;
12970;SDS011;6550;48.650;8.774;2023-03-01T15:04:21;13.30;;;11.87;;
12970;SDS011;6550;48.650;8.774;2023-03-01T15:06:52;14.23;;;11.47;;
12970;SDS011;6550;48.650;8.774;2023-03-01T15:09:21;14.67;;;11.80;;
12970;SDS011;6550;48.650;8.774;2023-03-01T15:11:50;14.17;;;12.57;;
12970;SDS011;6550;48.650;8.774;2023-03-01T15:14:54;14.67;;;13.20;;
12970;SDS011;6550;48.650;8.774;2023-03-01T15:17:32;12.77;;;11.47;;
12970;SDS011;6550;48.650;8.774;2023-03-01T15:20:03;15.37;;;10.83;;
12970;SDS011;6550;48.650;8.774;2023-03-01T15:22:47;13.87;;;11.87;;
12970;SDS011;6550;48.650;8.774;2023-03-01T15:25:18;13.93;;;12.27;;
12970;SDS011;6550;48.650;8.774;2023-03-01T15:27:47;14.27;;;12.60;;
12970;SDS011;6550;48.650;8.774;2023-03-01T15:30:52;13.90;;;11.97;;
12970;SDS011;6550;48.650;8.774;2023-03-01T15:33:15;14.50;;;12.20;;
12970;SDS011;6550;48.650;8.774;2023-03-01T15:35:55;13.43;;;11.13;;
12970;SDS011;6550;48.650;8.774;2023-03-01T15:44:25;15.77;;;11.73;;
12970;SDS011;6550;48.650;8.774;2023-03-01T15:47:23;15.20;;;13.50;;
12970;SDS011;6550;48.650;8.774;2023-03-01T15:49:53;14.40;;;12.23;;
12970;SDS011;6550;48.650;8.774;2023-03-01T15:52:32;13.27;;;11.17;;
12970;SDS011;6550;48.650;8.774;2023-03-01T15:55:06;15.03;;;11.67;;
12970;SDS011;6550;48.650;8.774;2023-03-01T15:57:44;14.50;;;12.77;;
12970;SDS011;6550;48.650;8.774;2023-03-01T16:00:11;14.03;;;11.20;;
12970;SDS011;6550;48.650;8.774;2023-03-01T16:02:40;16.20;;;11.73;;
12970;SDS011;6550;48.650;8.774;2023-03-01T16:05:12;13.33;;;11.10;;
12970;SDS011;6550;48.650;8.774;2023-03-01T16:07:53;14.60;;;11.33;;
12970;SDS011;6550;48.650;8.774;2023-03-01T16:10:20;13.00;;;11.27;;
12970;SDS011;6550;48.650;8.774;2023-03-01T16:12:48;14.80;;;12.07;;
12970;SDS011;6550;48.650;8.774;2023-03-01T16:15:21;14.53;;;12.07;;
12970;SDS011;6550;48.650;8.774;2023-03-01T16:17:49;13.33;;;10.90;;
12970;SDS011;6550;48.650;8.774;2023-03-01T16:20:16;14.40;;;12.65;;
12970;SDS011;6550;48.650;8.774;2023-03-01T16:22:58;14.77;;;11.63;;
12970;SDS011;6550;48.650;8.774;2023-03-01T16:25:32;13.87;;;12.17;;
12970;SDS011;6550;48.650;8.774;2023-03-01T16:28:00;16.03;;;11.53;;
12970;SDS011;6550;48.650;8.774;2023-03-01T16:30:31;13.97;;;10.87;;
12970;SDS011;6550;48.650;8.774;2023-03-01T16:32:57;14.40;;;11.67;;
12970;SDS011;6550;48.650;8.774;2023-03-01T16:35:28;15.30;;;10.83;;
12970;SDS011;6550;48.650;8.774;2023-03-01T16:37:55;15.27;;;11.63;;
12970;SDS011;6550;48.650;8.774;2023-03-01T16:40:25;14.13;;;11.67;;
12970;SDS011;6550;48.650;8.774;2023-03-01T16:42:54;14.10;;;11.30;;
12970;SDS011;6550;48.650;8.774;2023-03-01T16:45:25;17.43;;;11.90;;
12970;SDS011;6550;48.650;8.774;2023-03-01T16:48:02;14.37;;;11.60;;
12970;SDS011;6550;48.650;8.774;2023-03-01T16:50:29;15.43;;;11.73;;
12970;SDS011;6550;48.650;8.774;2023-03-01T16:52:58;14.40;;;12.60;;
12970;SDS011;6550;48.650;8.774;2023-03-01T16:55:27;19.43;;;12.07;;
12970;SDS011;6550;48.650;8.774;2023-03-01T16:57:54;22.87;;;11.77;;
12970;SDS011;6550;48.650;8.774;2023-03-01T17:00:21;16.93;;;11.80;;
12970;SDS011;6550;48.650;8.774;2023-03-01T17:02:48;15.13;;;10.57;;
12970;SDS011;6550;48.650;8.774;2023-03-01T17:05:15;14.27;;;10.53;;
12970;SDS011;6550;48.650;8.774;2023-03-01T17:07:44;15.82;;;12.63;;
12970;SDS011;6550;48.650;8.774;2023-03-01T17:10:11;13.93;;;11.17;;
12970;SDS011;6550;48.650;8.774;2023-03-01T17:12:37;12.23;;;10.97;;
12970;SDS011;6550;48.650;8.774;2023-03-01T17:15:06;14.10;;;10.50;;
12970;SDS011;6550;48.650;8.774;2023-03-01T17:17:33;12.37;;;9.90;;
12970;SDS011;6550;48.650;8.774;2023-03-01T17:20:00;15.17;;;11.50;;
12970;SDS011;6550;48.650;8.774;2023-03-01T17:22:30;13.33;;;10.20;;
12970;SDS011;6550;48.650;8.774;2023-03-01T17:24:57;13.03;;;10.17;;
12970;SDS011;6550;48.650;8.774;2023-03-01T17:27:24;13.80;;;11.23;;
12970;SDS011;6550;48.650;8.774;2023-03-01T17:29:51;12.70;;;9.77;;
12970;SDS011;6550;48.650;8.774;2023-03-01T17:32:18;15.60;;;10.10;;